Time;durP1;ratioP1;P1;durP2;ratioP2;P2;SDS_P1;SDS_P2;PMS_P1;PMS_P2;Temp;Humidity;BMP_temperature;BMP_pressure;BME280_temperature;BME280_humidity;BME280_pressure;Samples;Min_cycle;Max_cycle;Signal;HPM_P1;HPM_P2
2022/09/13 06:49:09;;;;;;;5.50;5.00;;;;;;;15.90;100.00;99141.94;1805338;23;20975;-87
2022/09/13 06:51:36;;;;;;;5.63;5.13;;;;;;;15.90;100.00;99141.94;4920494;29;20239;-89
2022/09/13 06:54:03;;;;;;;5.87;5.07;;;;;;;16.07;100.00;99143.31;4926104;29;20239;-88
2022/09/13 06:56:32;;;;;;;6.63;4.57;;;;;;;16.20;100.00;99140.09;4916797;29;20313;-89
2022/09/13 06:59:04;;;;;;;5.03;4.63;;;;;;;16.31;100.00;99146.34;4919338;29;20238;-89
2022/09/13 07:01:33;;;;;;;5.57;4.90;;;;;;;16.38;100.00;99149.56;4890285;29;20272;-89
2022/09/13 07:04:03;;;;;;;5.60;5.10;;;;;;;16.43;100.00;99146.06;4903584;29;20302;-89
2022/09/13 07:06:33;;;;;;;5.53;5.00;;;;;;;16.52;100.00;99153.38;4922041;29;20234;-89
2022/09/13 07:09:07;;;;;;;6.80;5.60;;;;;;;16.61;100.00;99149.06;4892192;29;20233;-89
2022/09/13 07:11:36;;;;;;;5.30;4.80;;;;;;;16.61;100.00;99135.56;4905794;29;20230;-89
2022/09/13 07:14:03;;;;;;;5.30;4.77;;;;;;;16.77;100.00;99144.50;4918625;29;20234;-88
2022/09/13 07:16:31;;;;;;;5.37;4.80;;;;;;;16.87;100.00;99132.84;4907197;29;20245;-88
2022/09/13 07:19:06;;;;;;;6.47;5.43;;;;;;;16.75;100.00;99132.34;4911469;29;20234;-89
2022/09/13 07:21:34;;;;;;;5.30;4.80;;;;;;;16.89;100.00;99122.59;4906931;29;20233;-88
2022/09/13 07:24:01;;;;;;;5.77;4.40;;;;;;;16.91;100.00;99126.63;4891797;29;20233;-89
2022/09/13 07:26:27;;;;;;;4.87;4.17;;;;;;;17.07;100.00;99114.69;4914279;29;20246;-89
2022/09/13 07:28:56;;;;;;;4.27;3.83;;;;;;;17.20;100.00;99129.53;4912694;29;20246;-89
2022/09/13 07:31:31;;;;;;;4.80;4.33;;;;;;;17.28;100.00;99122.75;4917717;29;20256;-89
2022/09/13 07:34:00;;;;;;;5.20;4.80;;;;;;;17.36;98.52;99125.69;4902803;29;20282;-89
2022/09/13 07:36:28;;;;;;;4.33;3.90;;;;;;;17.51;98.00;99130.25;4914105;29;20222;-89
2022/09/13 07:38:54;;;;;;;5.37;4.50;;;;;;;17.60;96.85;99134.84;4911466;29;20246;-90
2022/09/13 07:41:23;;;;;;;5.33;4.10;;;;;;;17.65;96.25;99133.19;4887292;29;20617;-90
2022/09/13 07:43:50;;;;;;;7.47;4.50;;;;;;;17.71;96.04;99146.47;4918394;29;20246;-89
2022/09/13 07:46:20;;;;;;;4.53;4.10;;;;;;;17.79;95.71;99139.66;4917671;29;20230;-89
2022/09/13 07:48:48;;;;;;;8.87;4.30;;;;;;;17.84;94.00;99139.63;4904893;29;20222;-89
2022/09/13 07:51:17;;;;;;;5.33;4.30;;;;;;;17.83;94.09;99138.81;4908791;29;20322;-89
2022/09/13 07:53:44;;;;;;;4.20;3.80;;;;;;;18.02;93.60;99136.28;4892461;29;20244;-90
2022/09/13 07:56:14;;;;;;;5.30;4.60;;;;;;;18.04;92.65;99143.06;4901040;29;20714;-89
2022/09/13 07:58:43;;;;;;;4.23;3.83;;;;;;;18.23;90.77;99145.91;4904193;29;20308;-90
2022/09/13 08:01:18;;;;;;;4.57;3.90;;;;;;;18.44;87.79;99138.44;4884509;29;20245;-88
2022/09/13 08:03:57;;;;;;;4.97;4.47;;;;;;;18.60;85.50;99133.75;4871789;29;20612;-88
2022/09/13 08:06:26;;;;;;;4.43;4.03;;;;;;;18.72;86.00;99129.56;4867777;29;20313;-90
2022/09/13 08:08:53;;;;;;;4.90;4.00;;;;;;;18.79;84.36;99132.78;4898952;29;20241;-89
2022/09/13 08:11:23;;;;;;;4.57;3.60;;;;;;;18.84;86.80;99129.19;4871345;29;20245;-90
2022/09/13 08:13:51;;;;;;;3.47;3.20;;;;;;;18.96;86.84;99129.63;4896455;29;20223;-89
2022/09/13 08:16:19;;;;;;;5.43;3.70;;;;;;;19.07;83.11;99123.00;4874798;29;20246;-90
2022/09/13 08:18:48;;;;;;;4.30;4.00;;;;;;;19.22;80.31;99127.47;4883284;29;20240;-90
2022/09/13 08:21:14;;;;;;;6.50;4.60;;;;;;;19.32;79.35;99133.56;4869975;29;20346;-89
2022/09/13 08:23:42;;;;;;;4.80;3.90;;;;;;;19.43;79.74;99137.00;4880451;29;20246;-90
2022/09/13 08:26:09;;;;;;;5.53;4.27;;;;;;;19.61;78.20;99136.28;4881489;29;20232;-90
2022/09/13 08:28:39;;;;;;;5.33;3.80;;;;;;;19.84;76.69;99136.53;4899041;29;20242;-89
2022/09/13 08:31:11;;;;;;;5.07;3.90;;;;;;;20.02;73.00;99138.44;4868221;29;20239;-89
2022/09/13 08:33:38;;;;;;;4.63;3.83;;;;;;;20.06;73.73;99140.28;4883012;29;20264;-89
2022/09/13 08:36:11;;;;;;;4.80;3.90;;;;;;;20.20;71.13;99143.91;4898215;29;20256;-87
2022/09/13 08:38:37;;;;;;;4.47;3.57;;;;;;;20.31;69.91;99144.59;4877974;29;20234;-89
2022/09/13 08:41:40;;;;;;;4.07;3.67;;;;;;;20.32;68.53;99142.69;4890547;29;20869;-89
2022/09/13 08:44:17;;;;;;;4.33;3.80;;;;;;;20.35;72.26;99140.19;4864678;29;20302;-88
2022/09/13 08:46:46;;;;;;;4.33;3.63;;;;;;;20.47;71.57;99131.56;4870248;29;20236;-89
2022/09/13 08:49:27;;;;;;;4.07;3.67;;;;;;;20.56;70.36;99118.91;4876280;29;20701;-88
2022/09/13 08:51:58;;;;;;;4.10;3.57;;;;;;;20.70;67.28;99127.94;4917265;29;20700;-88
2022/09/13 08:54:25;;;;;;;3.90;3.47;;;;;;;20.74;64.95;99125.41;4927585;29;20294;-88
2022/09/13 08:57:14;;;;;;;4.27;3.70;;;;;;;20.60;64.75;99130.81;4913495;29;20222;-89
2022/09/13 08:59:47;;;;;;;5.10;3.60;;;;;;;20.74;65.44;99125.41;4924596;29;20694;-89
2022/09/13 09:02:32;;;;;;;3.90;3.60;;;;;;;20.79;64.93;99128.06;4927700;29;20233;-89
2022/09/13 09:05:12;;;;;;;4.07;3.50;;;;;;;20.91;63.63;99123.75;4912381;29;20231;-89
2022/09/13 09:07:42;;;;;;;4.17;3.77;;;;;;;20.99;61.20;99117.63;4901672;29;20692;-89
2022/09/13 09:10:19;;;;;;;4.23;3.53;;;;;;;21.01;60.72;99115.41;4925899;29;20351;-90
2022/09/13 09:12:56;;;;;;;5.10;3.57;;;;;;;21.10;61.18;99113.59;4891373;29;20218;-90
2022/09/13 09:15:27;;;;;;;5.07;3.20;;;;;;;21.05;63.80;99110.97;4908693;29;20292;-90
2022/09/13 09:18:10;;;;;;;3.93;3.63;;;;;;;21.09;63.01;99105.72;4909254;29;20262;-90
2022/09/13 09:20:43;;;;;;;3.77;3.40;;;;;;;21.18;62.98;99106.69;4904528;29;20229;-90
2022/09/13 09:23:16;;;;;;;4.20;3.60;;;;;;;21.22;60.64;99101.44;4920260;29;20242;-89
2022/09/13 09:25:50;;;;;;;3.50;3.20;;;;;;;21.32;60.10;99096.59;4907139;29;20236;-90
2022/09/13 09:28:18;;;;;;;3.47;3.20;;;;;;;21.41;60.58;99102.97;4895194;29;20237;-90
2022/09/13 09:31:03;;;;;;;3.70;3.40;;;;;;;21.42;59.43;99101.84;4916454;29;20245;-89
2022/09/13 09:33:45;;;;;;;2.70;2.50;;;;;;;21.62;59.26;99100.63;4901166;29;20265;-88
2022/09/13 09:36:38;;;;;;;4.93;3.03;;;;;;;21.77;57.83;99096.75;4932270;29;20773;-88
2022/09/13 09:39:09;;;;;;;3.95;3.10;;;;;;;21.57;58.57;99099.91;4912215;29;20241;-90
2022/09/13 09:41:37;;;;;;;3.40;3.00;;;;;;;21.63;58.89;99098.69;4916292;29;20233;-89
2022/09/13 09:44:03;;;;;;;3.38;3.03;;;;;;;21.79;58.06;99097.28;4903319;29;20233;-90
2022/09/13 09:46:33;;;;;;;3.63;3.10;;;;;;;21.95;57.42;99104.03;4908880;29;20241;-88
2022/09/13 09:50:07;;;;;;;3.22;2.97;;;;;;;22.14;56.59;99091.03;4931834;29;20237;-89
2022/09/13 09:51:56;;;;;;;3.30;2.72;;;;;;;22.32;57.08;99089.25;4916423;29;20270;-89
2022/09/13 09:54:24;;;;;;;3.42;3.20;;;;;;;22.48;55.24;99084.25;4915864;29;20237;-89
2022/09/13 09:56:54;;;;;;;3.33;3.03;;;;;;;22.59;55.18;99080.13;4922826;29;20234;-91
2022/09/13 09:59:27;;;;;;;3.33;2.90;;;;;;;22.68;54.41;99079.06;4935625;29;20237;-90
2022/09/13 10:01:56;;;;;;;4.13;3.17;;;;;;;22.74;53.42;99066.94;4935608;29;20742;-91
2022/09/13 10:04:24;;;;;;;4.93;3.55;;;;;;;22.64;54.37;99064.44;4911904;29;20230;-90
2022/09/13 10:07:28;;;;;;;3.58;3.38;;;;;;;22.61;54.96;99056.06;4895957;29;20325;-89
2022/09/13 10:10:07;;;;;;;4.40;3.33;;;;;;;22.52;54.85;99052.47;4917723;29;20260;-88
2022/09/13 10:12:36;;;;;;;3.10;2.80;;;;;;;22.71;54.92;99050.38;4916374;29;20612;-88
2022/09/13 10:15:16;;;;;;;3.20;2.90;;;;;;;22.87;54.04;99039.84;4908420;29;20233;-88
2022/09/13 10:18:00;;;;;;;2.85;2.65;;;;;;;22.90;52.98;99044.69;4883711;29;20636;-88
2022/09/13 10:20:28;;;;;;;4.38;2.95;;;;;;;23.02;52.40;99044.91;4924187;29;20305;-88
2022/09/13 10:23:10;;;;;;;3.25;2.70;;;;;;;23.07;52.42;99042.84;4906355;29;20332;-88
2022/09/13 10:25:37;;;;;;;3.10;2.55;;;;;;;23.12;51.57;99034.50;4916298;29;20238;-88
2022/09/13 10:28:08;;;;;;;2.92;2.58;;;;;;;22.91;52.00;99024.47;4892266;29;20268;-88
2022/09/13 10:30:43;;;;;;;3.85;2.70;;;;;;;23.15;52.09;99027.56;4919712;29;20227;-89
2022/09/13 10:33:30;;;;;;;3.00;2.42;;;;;;;23.37;52.15;99015.75;4934138;29;20229;-87
2022/09/13 10:36:03;;;;;;;3.25;2.78;;;;;;;23.50;51.42;99023.88;4901087;29;20222;-88
2022/09/13 10:38:33;;;;;;;3.08;2.65;;;;;;;23.64;52.05;99024.53;4916258;29;20255;-89
2022/09/13 10:41:02;;;;;;;3.03;2.53;;;;;;;23.74;51.25;99020.69;4901466;29;20240;-89
2022/09/13 10:43:30;;;;;;;2.85;2.42;;;;;;;23.90;49.50;99024.53;4905981;29;20241;-89
2022/09/13 10:45:58;;;;;;;2.88;2.67;;;;;;;24.03;49.00;99023.56;4910484;29;20246;-88
2022/09/13 10:48:28;;;;;;;2.55;2.38;;;;;;;24.13;49.54;99028.72;4903030;29;20309;-86
2022/09/13 10:51:27;;;;;;;3.00;2.70;;;;;;;24.22;48.23;99020.53;4935437;29;20239;-88
2022/09/13 10:54:12;;;;;;;2.90;2.42;;;;;;;24.13;47.78;99033.38;4917071;29;20261;-89
2022/09/13 10:56:38;;;;;;;2.40;2.20;;;;;;;24.03;48.49;99022.75;4927083;29;20240;-89
2022/09/13 10:59:30;;;;;;;2.65;2.40;;;;;;;23.84;49.72;99025.03;4887784;29;20713;-89
2022/09/13 11:02:12;;;;;;;3.15;2.40;;;;;;;23.81;50.06;99023.72;4916418;29;20294;-89
2022/09/13 11:04:56;;;;;;;2.47;2.28;;;;;;;23.52;51.14;99020.78;4927999;29;20232;-89
2022/09/13 11:07:35;;;;;;;2.70;2.30;;;;;;;23.64;49.71;99019.06;4913948;29;20261;-89
2022/09/13 11:10:09;;;;;;;2.83;2.40;;;;;;;23.78;48.96;99016.19;4921068;29;20323;-88
2022/09/13 11:12:41;;;;;;;2.60;2.30;;;;;;;23.41;48.74;99016.72;4900127;29;20292;-89
2022/09/13 11:15:27;;;;;;;4.28;2.50;;;;;;;23.23;49.34;99019.44;4914453;29;20265;-89
2022/09/13 11:18:19;;;;;;;3.40;2.45;;;;;;;23.60;48.27;99012.63;4914395;29;20350;-89
2022/09/13 11:21:25;;;;;;;2.42;2.22;;;;;;;23.84;47.27;99005.88;4904985;29;20253;-89
2022/09/13 11:24:04;;;;;;;3.53;2.40;;;;;;;23.91;48.08;98998.78;4915876;29;20227;-89
2022/09/13 11:26:57;;;;;;;3.63;2.38;;;;;;;24.07;46.98;98991.72;4918472;29;20240;-89
2022/09/13 11:30:08;;;;;;;2.42;2.22;;;;;;;23.76;46.31;98985.59;4895550;29;20643;-87
2022/09/13 11:33:00;;;;;;;3.30;2.13;;;;;;;23.96;46.95;98992.34;4938886;29;20313;-87
2022/09/13 11:35:35;;;;;;;2.55;2.30;;;;;;;23.98;46.08;98979.16;4921234;29;20299;-87
2022/09/13 11:38:27;;;;;;;5.50;2.40;;;;;;;24.20;46.69;98970.78;4927891;29;20233;-86
2022/09/13 11:41:21;;;;;;;3.20;2.08;;;;;;;24.22;47.20;98974.00;4928853;29;20327;-87
2022/09/13 11:44:39;;;;;;;3.03;2.10;;;;;;;24.41;46.39;98973.63;4912960;29;20266;-86
2022/09/13 11:47:22;;;;;;;2.45;2.22;;;;;;;24.58;46.56;98970.84;4886351;29;20280;-87
2022/09/13 11:49:57;;;;;;;2.55;2.35;;;;;;;24.52;47.10;98966.69;4906801;29;20259;-85
2022/09/13 11:52:54;;;;;;;2.30;2.10;;;;;;;24.84;46.35;98977.03;4927683;29;20233;-86
2022/09/13 11:55:47;;;;;;;2.65;2.40;;;;;;;25.06;45.91;98975.19;4896513;29;20273;-86
2022/09/13 11:58:20;;;;;;;3.75;2.40;;;;;;;25.26;45.54;98967.00;4885152;29;20623;-86
2022/09/13 12:00:52;;;;;;;4.82;2.38;;;;;;;25.48;44.78;98973.31;4887702;29;20234;-87
2022/09/13 12:03:55;;;;;;;2.30;2.05;;;;;;;25.62;44.03;98963.72;4894478;29;20237;-87
2022/09/13 12:06:27;;;;;;;5.45;2.33;;;;;;;25.18;46.12;98975.28;4902461;29;20235;-87
2022/09/13 12:09:20;;;;;;;2.83;2.40;;;;;;;25.01;45.04;98970.69;4888415;29;20258;-87
2022/09/13 12:11:58;;;;;;;2.33;2.13;;;;;;;24.18;46.67;98956.63;4898279;29;20280;-88
2022/09/13 12:14:29;;;;;;;2.88;2.28;;;;;;;24.28;46.58;98969.16;4892836;29;20266;-87
2022/09/13 12:17:03;;;;;;;2.30;2.20;;;;;;;24.51;47.35;98957.66;4877320;29;20237;-87
2022/09/13 12:19:40;;;;;;;2.30;2.17;;;;;;;24.11;47.03;98959.84;4908609;29;20228;-88
2022/09/13 12:22:08;;;;;;;2.78;2.50;;;;;;;24.26;47.12;98958.56;4901164;29;20233;-87
2022/09/13 12:24:46;;;;;;;2.75;2.20;;;;;;;24.14;47.66;98958.38;4886165;29;20971;-88
2022/09/13 12:27:48;;;;;;;3.42;2.13;;;;;;;23.56;48.46;98958.91;4904621;29;20248;-88
2022/09/13 12:30:22;;;;;;;3.60;2.50;;;;;;;24.03;47.51;98952.44;4893285;29;20717;-88
2022/09/13 12:32:51;;;;;;;2.50;2.30;;;;;;;24.23;47.46;98950.16;4883328;29;20239;-87
2022/09/13 12:35:28;;;;;;;2.50;2.30;;;;;;;24.60;46.12;98943.94;4910829;29;20228;-87
2022/09/13 12:38:01;;;;;;;2.53;2.00;;;;;;;23.98;47.34;98946.34;4902587;29;20330;-88
2022/09/13 12:40:59;;;;;;;2.50;2.30;;;;;;;23.45;49.11;98942.00;4892264;29;20236;-88
2022/09/13 12:44:05;;;;;;;2.55;2.33;;;;;;;23.32;49.51;98933.91;4900296;29;20239;-88
2022/09/13 12:46:50;;;;;;;3.25;2.15;;;;;;;24.07;48.08;98936.19;4878145;29;20239;-88
2022/09/13 12:49:35;;;;;;;3.10;2.30;;;;;;;24.47;46.47;98921.13;4896131;29;20226;-87
2022/09/13 12:52:11;;;;;;;2.05;1.90;;;;;;;24.70;45.81;98915.38;4911414;29;20455;-86
2022/09/13 12:55:23;;;;;;;2.65;2.45;;;;;;;24.92;46.41;98917.88;4918370;29;20233;-87
2022/09/13 12:58:28;;;;;;;2.33;2.13;;;;;;;25.06;45.79;98918.44;4891785;29;20245;-86
2022/09/13 13:00:58;;;;;;;5.07;2.30;;;;;;;24.77;44.96;98913.75;4923374;29;20316;-87
2022/09/13 13:03:30;;;;;;;3.70;2.30;;;;;;;25.02;45.16;98913.94;4910856;29;20259;-88
2022/09/13 13:06:32;;;;;;;2.55;2.35;;;;;;;25.08;45.37;98901.66;4925801;29;20237;-88
2022/09/13 13:09:05;;;;;;;4.25;2.03;;;;;;;25.08;44.63;98901.66;4867287;29;20245;-88
2022/09/13 13:11:46;;;;;;;4.32;2.22;;;;;;;25.08;44.80;98897.00;4921220;29;20232;-89
2022/09/13 13:14:30;;;;;;;2.78;2.58;;;;;;;24.84;45.45;98897.59;4900129;29;20329;-87
2022/09/13 13:17:35;;;;;;;3.22;2.30;;;;;;;24.75;45.72;98894.09;4912408;29;20236;-88
2022/09/13 13:20:40;;;;;;;2.50;2.30;;;;;;;24.66;45.94;98893.34;4915163;29;20237;-88
2022/09/13 13:23:35;;;;;;;2.58;2.38;;;;;;;24.54;45.36;98896.75;4914984;29;20238;-90
2022/09/13 13:26:20;;;;;;;2.67;2.33;;;;;;;24.52;46.39;98890.81;4899041;29;20244;-90
2022/09/13 13:28:50;;;;;;;2.72;2.53;;;;;;;24.71;45.46;98884.94;4927873;29;20269;-90
2022/09/13 13:31:23;;;;;;;3.63;2.15;;;;;;;24.94;45.00;98883.53;4921214;29;20247;-90
2022/09/13 13:33:52;;;;;;;4.28;2.17;;;;;;;25.08;44.55;98872.31;4931098;29;20237;-91
2022/09/13 13:36:24;;;;;;;2.50;2.30;;;;;;;25.24;43.90;98876.06;4900496;29;20245;-90
2022/09/13 13:38:55;;;;;;;3.58;2.20;;;;;;;25.39;44.09;98878.22;4915390;29;20272;-90
2022/09/13 13:41:38;;;;;;;2.50;2.30;;;;;;;25.57;43.50;98878.13;4899511;29;20266;-91
2022/09/13 13:44:20;;;;;;;2.72;2.28;;;;;;;25.72;43.54;98882.94;4916182;29;20236;-90
2022/09/13 13:46:51;;;;;;;2.78;2.25;;;;;;;25.77;42.62;98882.75;4914225;29;20737;-90
2022/09/13 13:49:30;;;;;;;2.38;2.17;;;;;;;25.97;42.05;98873.69;4913778;29;20316;-90
2022/09/13 13:52:16;;;;;;;3.28;2.20;;;;;;;26.02;42.38;98875.41;4900309;29;20238;-90
2022/09/13 13:55:37;;;;;;;2.53;2.25;;;;;;;26.07;41.96;98872.44;4908290;29;20241;-90
2022/09/13 13:58:28;;;;;;;3.10;2.80;;;;;;;25.83;42.64;98884.16;4910272;29;20242;-90
2022/09/13 14:00:57;;;;;;;4.07;2.42;;;;;;;26.15;42.02;98880.56;4916226;29;20258;-90
2022/09/13 14:03:34;;;;;;;3.45;2.33;;;;;;;26.35;40.71;98870.69;4908343;29;20236;-90
2022/09/13 14:06:11;;;;;;;2.40;2.20;;;;;;;26.40;39.83;98873.22;4915920;29;20238;-91
2022/09/13 14:08:43;;;;;;;4.10;2.10;;;;;;;26.46;39.78;98860.84;4915940;29;20288;-91
2022/09/13 14:11:28;;;;;;;3.22;2.30;;;;;;;26.45;40.51;98856.53;4915986;29;20230;-90
2022/09/13 14:14:32;;;;;;;2.92;2.60;;;;;;;26.63;40.20;98857.88;4917495;29;20317;-91
2022/09/13 14:17:29;;;;;;;3.92;2.30;;;;;;;26.74;40.39;98858.22;4924193;29;20237;-90
2022/09/13 14:20:03;;;;;;;3.13;2.08;;;;;;;26.90;39.78;98848.16;4917099;29;20286;-90
2022/09/13 14:22:30;;;;;;;2.53;2.20;;;;;;;26.96;38.89;98843.22;4902934;29;20233;-91
2022/09/13 14:25:31;;;;;;;3.38;1.90;;;;;;;26.90;38.59;98848.16;4895352;29;20235;-90
2022/09/13 14:27:58;;;;;;;2.75;2.15;;;;;;;26.92;38.96;98845.06;4897650;29;20945;-91
2022/09/13 14:30:36;;;;;;;3.28;2.28;;;;;;;26.88;38.91;98844.94;4896347;29;20234;-91
2022/09/13 14:33:07;;;;;;;2.30;2.10;;;;;;;26.86;39.28;98844.50;4910049;29;20229;-90
2022/09/13 14:35:39;;;;;;;2.45;2.33;;;;;;;26.74;39.16;98838.97;4915804;29;20234;-90
2022/09/13 14:38:10;;;;;;;2.30;2.08;;;;;;;26.53;39.51;98828.13;4917622;29;20238;-90
2022/09/13 14:40:39;;;;;;;3.58;2.45;;;;;;;26.39;41.16;98821.38;4926794;29;20232;-90
2022/09/13 14:43:19;;;;;;;3.65;2.60;;;;;;;26.31;40.80;98833.28;4915714;29;20242;-90
2022/09/13 14:45:49;;;;;;;2.47;2.28;;;;;;;26.10;41.83;98828.63;4895769;29;20316;-90
2022/09/13 14:48:17;;;;;;;2.60;2.40;;;;;;;26.04;40.81;98827.25;4908592;29;20237;-91
2022/09/13 14:51:02;;;;;;;3.67;2.17;;;;;;;25.98;40.38;98825.09;4920592;29;20705;-90
2022/09/13 14:53:32;;;;;;;2.22;2.00;;;;;;;25.75;40.71;98827.44;4910681;29;20784;-91
2022/09/13 14:56:03;;;;;;;2.72;2.10;;;;;;;25.60;41.57;98822.56;4912384;29;20229;-90
2022/09/13 14:58:43;;;;;;;3.45;2.45;;;;;;;25.57;44.23;98821.28;4906886;29;20693;-89
2022/09/13 15:01:12;;;;;;;2.40;2.20;;;;;;;25.49;44.49;98824.91;4901204;29;20698;-90
2022/09/13 15:03:43;;;;;;;2.78;2.55;;;;;;;25.34;42.95;98807.13;4912359;29;20256;-90
2022/09/13 15:06:25;;;;;;;2.30;1.90;;;;;;;25.28;41.41;98805.75;4920901;29;20234;-90
2022/09/13 15:09:08;;;;;;;2.30;2.13;;;;;;;25.10;42.02;98812.50;4926249;29;20234;-91
2022/09/13 15:11:37;;;;;;;2.20;2.10;;;;;;;24.99;41.67;98805.81;4938153;29;20296;-91
2022/09/13 15:14:31;;;;;;;2.92;1.90;;;;;;;24.92;41.86;98806.34;4921035;29;20769;-91
2022/09/13 15:17:00;;;;;;;3.00;2.20;;;;;;;24.87;41.66;98809.28;4919940;29;20222;-91
2022/09/13 15:19:30;;;;;;;2.40;2.10;;;;;;;24.74;41.47;98804.81;4917261;29;20235;-91
2022/09/13 15:22:19;;;;;;;2.53;2.15;;;;;;;24.55;42.47;98808.00;4922376;29;20235;-90
2022/09/13 15:24:49;;;;;;;2.65;1.90;;;;;;;24.42;42.46;98810.97;4924481;29;20320;-90
2022/09/13 15:27:27;;;;;;;3.88;1.92;;;;;;;24.45;42.43;98810.34;4937400;29;20237;-90
2022/09/13 15:29:57;;;;;;;3.65;2.13;;;;;;;24.33;42.68;98816.50;4936341;29;21626;-91
2022/09/13 15:32:44;;;;;;;3.05;2.20;;;;;;;24.21;43.51;98810.94;4891762;29;20238;-91
2022/09/13 15:35:35;;;;;;;3.47;2.20;;;;;;;24.16;44.16;98802.06;4911981;29;20221;-91
2022/09/13 15:38:17;;;;;;;5.65;2.15;;;;;;;24.13;45.21;98801.59;4910390;29;20292;-89
2022/09/13 15:40:46;;;;;;;4.20;2.20;;;;;;;23.99;45.58;98790.03;4926401;29;20301;-90
2022/09/13 15:43:13;;;;;;;3.83;2.08;;;;;;;23.90;45.21;98788.47;4918242;29;20248;-90
2022/09/13 15:45:39;;;;;;;2.80;2.30;;;;;;;23.78;45.27;98796.56;4930736;29;20237;-89
2022/09/13 15:48:07;;;;;;;3.63;2.10;;;;;;;23.74;45.64;98792.88;4910800;29;20231;-90
2022/09/13 15:50:35;;;;;;;4.18;2.10;;;;;;;23.72;46.16;98784.19;4902910;29;20256;-90
2022/09/13 15:53:09;;;;;;;4.93;2.28;;;;;;;23.65;46.79;98784.72;4895175;29;20240;-90
2022/09/13 15:55:38;;;;;;;4.25;2.53;;;;;;;23.49;47.46;98786.34;4921769;29;20245;-91
2022/09/13 15:58:04;;;;;;;3.58;2.22;;;;;;;23.44;47.61;98778.28;4921259;29;20917;-90
2022/09/13 16:00:31;;;;;;;3.17;2.63;;;;;;;23.33;47.68;98783.25;4908745;29;20699;-87
2022/09/13 16:02:58;;;;;;;2.78;2.50;;;;;;;23.26;47.77;98780.22;4887523;29;20425;-87
2022/09/13 16:05:25;;;;;;;2.63;2.42;;;;;;;23.17;48.79;98777.50;4902059;29;20234;-87
2022/09/13 16:07:53;;;;;;;2.70;2.50;;;;;;;23.04;49.23;98781.22;4885191;29;20240;-87
2022/09/13 16:10:21;;;;;;;3.55;2.63;;;;;;;22.96;49.98;98784.72;4914261;29;20248;-87
2022/09/13 16:12:48;;;;;;;4.88;2.70;;;;;;;22.89;49.84;98773.50;4919020;29;20236;-85
2022/09/13 16:15:15;;;;;;;3.72;3.22;;;;;;;22.86;50.10;98776.06;4905204;29;20278;-86
2022/09/13 16:17:42;;;;;;;3.05;2.75;;;;;;;22.75;51.39;98781.03;4901923;29;20233;-86
2022/09/13 16:20:11;;;;;;;2.95;2.53;;;;;;;22.75;51.11;98781.84;4926173;29;20229;-88
2022/09/13 16:22:39;;;;;;;4.75;2.50;;;;;;;22.63;52.50;98789.78;4906790;29;20298;-86
2022/09/13 16:25:06;;;;;;;5.40;2.97;;;;;;;22.53;52.52;98784.66;4924426;29;20244;-85
2022/09/13 16:27:33;;;;;;;3.50;3.17;;;;;;;22.48;52.94;98787.53;4925029;29;20261;-85
2022/09/13 16:30:00;;;;;;;3.72;3.40;;;;;;;22.40;53.79;98783.66;4907443;29;20252;-87
2022/09/13 16:32:26;;;;;;;2.88;2.65;;;;;;;22.37;54.37;98778.84;4922761;29;20253;-83
2022/09/13 16:34:53;;;;;;;3.25;2.95;;;;;;;22.37;54.39;98776.09;4917924;29;20234;-84
2022/09/13 16:37:20;;;;;;;3.55;2.85;;;;;;;22.33;53.64;98769.69;4915907;29;20330;-85
2022/09/13 16:39:46;;;;;;;4.20;3.13;;;;;;;22.27;54.18;98770.13;4915604;29;20741;-86
2022/09/13 16:42:16;;;;;;;3.50;3.20;;;;;;;22.17;55.23;98775.88;4919537;29;20238;-85
2022/09/13 16:44:42;;;;;;;4.75;3.47;;;;;;;22.08;55.97;98772.31;4922800;29;20288;-86
2022/09/13 16:47:09;;;;;;;3.67;3.38;;;;;;;22.07;57.51;98778.91;4903796;29;20234;-86
2022/09/13 16:49:36;;;;;;;4.20;2.95;;;;;;;21.98;57.72;98772.63;4919238;29;20238;-86
2022/09/13 16:52:03;;;;;;;3.47;3.17;;;;;;;21.90;57.90;98774.16;4919090;29;20294;-85
2022/09/13 16:54:30;;;;;;;3.40;3.10;;;;;;;21.91;57.07;98773.84;4919951;29;20237;-87
2022/09/13 16:56:57;;;;;;;3.25;2.90;;;;;;;21.79;57.73;98770.09;4919991;29;20240;-86
2022/09/13 16:59:24;;;;;;;3.25;3.05;;;;;;;21.73;58.93;98763.16;4912479;29;20237;-86
2022/09/13 17:01:51;;;;;;;3.50;3.15;;;;;;;21.82;57.44;98769.47;4916871;29;20243;-86
2022/09/13 17:04:18;;;;;;;2.80;2.60;;;;;;;21.70;58.62;98764.56;4916317;29;20241;-88
2022/09/13 17:06:45;;;;;;;3.08;2.88;;;;;;;21.62;61.14;98767.25;4914280;29;20238;-87
2022/09/13 17:09:12;;;;;;;3.53;3.13;;;;;;;21.55;62.97;98769.66;4900914;29;20249;-87
2022/09/13 17:11:40;;;;;;;4.53;2.90;;;;;;;21.49;64.44;98771.69;4900648;29;20262;-87
2022/09/13 17:14:12;;;;;;;3.63;3.33;;;;;;;21.40;63.95;98766.19;4919480;29;20242;-87
2022/09/13 17:16:42;;;;;;;5.47;4.00;;;;;;;21.37;65.04;98771.47;4913728;29;20323;-87
2022/09/13 17:19:16;;;;;;;14.93;13.38;;;;;;;21.31;64.63;98775.41;4909951;29;20647;-87
2022/09/13 17:21:43;;;;;;;9.60;8.60;;;;;;;21.22;64.87;98767.19;4901604;29;20238;-87
2022/09/13 17:24:10;;;;;;;6.43;5.10;;;;;;;21.15;65.31;98766.81;4911715;29;20241;-88
2022/09/13 17:26:40;;;;;;;4.18;3.60;;;;;;;21.19;67.63;98762.34;4917265;29;20326;-88
2022/09/13 17:29:07;;;;;;;4.28;3.55;;;;;;;21.07;70.44;98762.88;4900845;29;20623;-88
2022/09/13 17:31:34;;;;;;;5.00;3.15;;;;;;;21.01;71.32;98755.94;4918201;29;20236;-88
2022/09/13 17:34:01;;;;;;;3.50;3.20;;;;;;;20.93;72.92;98750.44;4934454;29;20296;-86
2022/09/13 17:36:28;;;;;;;3.50;3.20;;;;;;;20.87;74.28;98752.47;4933328;29;20313;-88
2022/09/13 17:38:55;;;;;;;3.33;3.03;;;;;;;20.83;74.91;98751.47;4897393;29;20689;-87
2022/09/13 17:41:23;;;;;;;3.78;3.15;;;;;;;20.78;75.95;98757.03;4918179;29;20253;-88
2022/09/13 17:43:51;;;;;;;3.95;2.90;;;;;;;20.76;79.13;98753.03;4903333;29;20241;-88
2022/09/13 17:46:24;;;;;;;3.20;2.90;;;;;;;20.66;80.74;98751.31;4904601;29;20246;-88
2022/09/13 17:48:52;;;;;;;3.13;2.90;;;;;;;20.62;82.38;98756.56;4907841;29;20328;-88
2022/09/13 17:51:24;;;;;;;2.78;2.58;;;;;;;20.56;85.61;98757.00;4915149;29;20234;-87
2022/09/13 17:53:53;;;;;;;3.08;2.80;;;;;;;20.52;87.33;98761.44;4905878;29;20235;-87
2022/09/13 17:56:22;;;;;;;2.85;2.65;;;;;;;20.47;88.47;98756.09;4902832;29;20974;-87
2022/09/13 17:58:49;;;;;;;3.33;3.03;;;;;;;20.40;91.71;98752.97;4900116;29;20227;-87
2022/09/13 18:01:16;;;;;;;3.00;2.80;;;;;;;20.35;91.78;98756.59;4900442;29;20234;-87
2022/09/13 18:03:43;;;;;;;3.08;2.83;;;;;;;20.31;94.19;98749.34;4900115;29;20238;-86
2022/09/13 18:06:10;;;;;;;3.53;3.00;;;;;;;20.23;98.15;98756.31;4889575;29;20238;-88
2022/09/13 18:08:38;;;;;;;3.85;3.10;;;;;;;20.07;100.00;98753.06;4916059;29;20258;-87
2022/09/13 18:11:16;;;;;;;3.08;2.78;;;;;;;20.02;100.00;98752.38;4900000;29;20252;-87
2022/09/13 18:13:48;;;;;;;3.17;2.85;;;;;;;19.91;100.00;98745.53;4931995;29;20221;-88
2022/09/13 18:16:18;;;;;;;3.42;2.80;;;;;;;19.82;100.00;98753.59;4922885;29;20226;-87
2022/09/13 18:18:48;;;;;;;2.93;2.73;;;;;;;19.69;100.00;98759.81;4918023;29;20244;-87
2022/09/13 18:21:18;;;;;;;4.03;2.97;;;;;;;19.61;100.00;98763.22;4919078;29;20232;-87
2022/09/13 18:23:46;;;;;;;4.30;3.20;;;;;;;19.52;100.00;98767.72;4913466;29;20300;-88
2022/09/13 18:26:16;;;;;;;4.10;3.80;;;;;;;19.42;100.00;98770.56;4917357;29;20249;-87
2022/09/13 18:28:43;;;;;;;4.10;3.80;;;;;;;19.29;100.00;98761.28;4902050;29;20247;-87
2022/09/13 18:31:13;;;;;;;4.00;3.13;;;;;;;19.23;100.00;98767.91;4910682;29;20238;-87
2022/09/13 18:33:41;;;;;;;3.50;3.20;;;;;;;19.21;100.00;98770.13;4915897;29;20234;-88
2022/09/13 18:36:10;;;;;;;2.80;2.60;;;;;;;19.08;100.00;98762.75;4915337;29;20227;-88
2022/09/13 18:38:39;;;;;;;3.00;2.80;;;;;;;19.07;100.00;98767.34;4931394;29;20249;-87
2022/09/13 18:41:08;;;;;;;4.57;3.43;;;;;;;19.01;100.00;98765.81;4915465;29;20258;-87
2022/09/13 18:43:36;;;;;;;3.47;3.20;;;;;;;18.93;100.00;98763.78;4915651;29;20773;-88
2022/09/13 18:46:06;;;;;;;3.13;2.93;;;;;;;18.82;100.00;98773.97;4918539;29;20274;-88
2022/09/13 18:48:38;;;;;;;5.10;3.57;;;;;;;18.80;100.00;98772.66;4902257;29;20314;-87
2022/09/13 18:51:08;;;;;;;3.30;3.00;;;;;;;18.80;100.00;98762.59;4934562;29;20315;-88
2022/09/13 18:53:35;;;;;;;3.60;3.30;;;;;;;18.79;100.00;98757.47;4934398;29;20242;-89
2022/09/13 18:56:03;;;;;;;3.70;3.27;;;;;;;18.72;100.00;98767.88;4914848;29;20233;-87